sensor_id;sensor_type;location;lat;lon;timestamp;P1;durP1;ratioP1;P2;durP2;ratioP2
72649;SDS011;61467;50.674;4.618;2024-03-23T00:54:18;8.95;;;1.90;;
72649;SDS011;61467;50.674;4.618;2024-03-23T00:56:45;8.38;;;2.00;;
72649;SDS011;61467;50.674;4.618;2024-03-23T00:59:10;7.67;;;2.47;;
72649;SDS011;61467;50.674;4.618;2024-03-23T01:01:39;8.68;;;1.75;;
72649;SDS011;61467;50.674;4.618;2024-03-23T01:04:05;9.38;;;2.03;;
72649;SDS011;61467;50.674;4.618;2024-03-23T01:06:32;11.15;;;2.20;;
72649;SDS011;61467;50.674;4.618;2024-03-23T01:08:58;9.77;;;2.53;;
72649;SDS011;61467;50.674;4.618;2024-03-23T01:11:26;7.72;;;2.03;;
72649;SDS011;61467;50.674;4.618;2024-03-23T01:13:53;8.23;;;2.20;;
72649;SDS011;61467;50.674;4.618;2024-03-23T01:16:21;7.47;;;2.33;;
72649;SDS011;61467;50.674;4.618;2024-03-23T01:18:47;9.18;;;2.20;;
72649;SDS011;61467;50.674;4.618;2024-03-23T01:21:14;6.77;;;2.10;;
72649;SDS011;61467;50.674;4.618;2024-03-23T01:23:40;9.88;;;2.33;;
72649;SDS011;61467;50.674;4.618;2024-03-23T01:26:07;7.50;;;1.98;;
72649;SDS011;61467;50.674;4.618;2024-03-23T01:28:34;7.75;;;1.98;;
72649;SDS011;61467;50.674;4.618;2024-03-23T01:31:01;8.33;;;2.40;;
72649;SDS011;61467;50.674;4.618;2024-03-23T01:33:28;8.52;;;2.08;;
72649;SDS011;61467;50.674;4.618;2024-03-23T01:35:55;8.73;;;2.55;;
72649;SDS011;61467;50.674;4.618;2024-03-23T01:38:20;6.88;;;2.40;;
72649;SDS011;61467;50.674;4.618;2024-03-23T01:40:47;8.18;;;2.53;;
72649;SDS011;61467;50.674;4.618;2024-03-23T01:43:13;8.77;;;2.33;;
72649;SDS011;61467;50.674;4.618;2024-03-23T01:45:42;8.57;;;2.67;;
72649;SDS011;61467;50.674;4.618;2024-03-23T01:48:08;8.60;;;2.60;;
72649;SDS011;61467;50.674;4.618;2024-03-23T01:50:37;8.98;;;3.13;;
72649;SDS011;61467;50.674;4.618;2024-03-23T01:53:04;9.43;;;2.40;;
72649;SDS011;61467;50.674;4.618;2024-03-23T01:55:32;7.57;;;2.17;;
72649;SDS011;61467;50.674;4.618;2024-03-23T01:57:58;8.65;;;2.55;;
72649;SDS011;61467;50.674;4.618;2024-03-23T02:00:25;8.23;;;2.17;;
72649;SDS011;61467;50.674;4.618;2024-03-23T02:02:54;8.73;;;2.67;;
72649;SDS011;61467;50.674;4.618;2024-03-23T02:05:21;8.13;;;2.30;;
72649;SDS011;61467;50.674;4.618;2024-03-23T02:07:47;9.77;;;2.33;;
72649;SDS011;61467;50.674;4.618;2024-03-23T02:10:14;8.68;;;3.08;;
72649;SDS011;61467;50.674;4.618;2024-03-23T02:12:40;9.75;;;3.13;;
72649;SDS011;61467;50.674;4.618;2024-03-23T02:15:07;9.55;;;2.85;;
72649;SDS011;61467;50.674;4.618;2024-03-23T02:17:34;10.30;;;2.40;;
72649;SDS011;61467;50.674;4.618;2024-03-23T02:20:03;9.73;;;2.33;;
72649;SDS011;61467;50.674;4.618;2024-03-23T02:22:35;10.55;;;2.70;;
72649;SDS011;61467;50.674;4.618;2024-03-23T02:25:05;8.48;;;2.63;;
72649;SDS011;61467;50.674;4.618;2024-03-23T02:27:31;9.23;;;2.75;;
72649;SDS011;61467;50.674;4.618;2024-03-23T02:29:59;10.23;;;2.77;;
72649;SDS011;61467;50.674;4.618;2024-03-23T02:32:25;8.52;;;2.38;;
72649;SDS011;61467;50.674;4.618;2024-03-23T02:34:52;10.52;;;2.67;;
72649;SDS011;61467;50.674;4.618;2024-03-23T02:37:18;7.90;;;2.47;;
72649;SDS011;61467;50.674;4.618;2024-03-23T02:39:45;8.93;;;2.20;;
72649;SDS011;61467;50.674;4.618;2024-03-23T02:42:13;8.27;;;2.25;;
72649;SDS011;61467;50.674;4.618;2024-03-23T02:44:42;8.25;;;2.83;;
72649;SDS011;61467;50.674;4.618;2024-03-23T02:47:08;9.98;;;2.85;;
72649;SDS011;61467;50.674;4.618;2024-03-23T02:49:35;10.43;;;2.97;;
72649;SDS011;61467;50.674;4.618;2024-03-23T02:52:01;9.98;;;3.28;;
72649;SDS011;61467;50.674;4.618;2024-03-23T02:54:27;11.27;;;3.90;;
72649;SDS011;61467;50.674;4.618;2024-03-23T02:56:53;11.98;;;3.47;;
72649;SDS011;61467;50.674;4.618;2024-03-23T02:59:22;10.33;;;3.40;;
72649;SDS011;61467;50.674;4.618;2024-03-23T03:01:48;9.48;;;3.10;;
72649;SDS011;61467;50.674;4.618;2024-03-23T03:04:14;9.00;;;3.63;;
72649;SDS011;61467;50.674;4.618;2024-03-23T03:06:40;11.65;;;4.07;;
72649;SDS011;61467;50.674;4.618;2024-03-23T03:09:07;12.40;;;4.47;;
72649;SDS011;61467;50.674;4.618;2024-03-23T03:11:33;13.47;;;4.20;;
72649;SDS011;61467;50.674;4.618;2024-03-23T03:14:00;18.45;;;5.38;;
72649;SDS011;61467;50.674;4.618;2024-03-23T03:16:28;15.70;;;4.72;;
72649;SDS011;61467;50.674;4.618;2024-03-23T03:18:55;11.90;;;4.75;;
72649;SDS011;61467;50.674;4.618;2024-03-23T03:21:21;15.23;;;5.30;;
72649;SDS011;61467;50.674;4.618;2024-03-23T03:23:48;12.73;;;5.30;;
72649;SDS011;61467;50.674;4.618;2024-03-23T03:26:15;14.93;;;5.55;;
72649;SDS011;61467;50.674;4.618;2024-03-23T03:28:42;18.00;;;5.90;;
72649;SDS011;61467;50.674;4.618;2024-03-23T03:31:08;17.10;;;6.13;;
72649;SDS011;61467;50.674;4.618;2024-03-23T03:33:37;15.63;;;6.53;;
72649;SDS011;61467;50.674;4.618;2024-03-23T03:36:03;18.88;;;6.32;;
72649;SDS011;61467;50.674;4.618;2024-03-23T03:38:30;16.25;;;7.10;;
72649;SDS011;61467;50.674;4.618;2024-03-23T03:40:56;14.77;;;6.55;;
72649;SDS011;61467;50.674;4.618;2024-03-23T03:43:25;17.83;;;6.50;;
72649;SDS011;61467;50.674;4.618;2024-03-23T03:45:51;17.87;;;7.20;;
72649;SDS011;61467;50.674;4.618;2024-03-23T03:48:18;16.75;;;7.20;;
72649;SDS011;61467;50.674;4.618;2024-03-23T03:50:46;19.58;;;7.75;;
72649;SDS011;61467;50.674;4.618;2024-03-23T03:53:13;19.33;;;8.40;;
72649;SDS011;61467;50.674;4.618;2024-03-23T03:55:39;20.50;;;8.37;;
72649;SDS011;61467;50.674;4.618;2024-03-23T03:58:06;20.23;;;8.27;;
72649;SDS011;61467;50.674;4.618;2024-03-23T04:00:32;20.15;;;8.88;;
72649;SDS011;61467;50.674;4.618;2024-03-23T04:02:59;21.42;;;8.98;;
72649;SDS011;61467;50.674;4.618;2024-03-23T04:05:25;20.80;;;8.73;;
72649;SDS011;61467;50.674;4.618;2024-03-23T04:07:53;22.52;;;9.90;;
72649;SDS011;61467;50.674;4.618;2024-03-23T04:10:19;20.70;;;9.32;;
72649;SDS011;61467;50.674;4.618;2024-03-23T04:12:46;21.35;;;9.23;;
72649;SDS011;61467;50.674;4.618;2024-03-23T04:15:13;21.90;;;10.32;;
72649;SDS011;61467;50.674;4.618;2024-03-23T04:17:40;18.67;;;9.33;;
72649;SDS011;61467;50.674;4.618;2024-03-23T04:20:08;21.83;;;9.60;;
72649;SDS011;61467;50.674;4.618;2024-03-23T04:22:36;17.13;;;8.40;;
72649;SDS011;61467;50.674;4.618;2024-03-23T04:25:04;20.77;;;8.85;;
72649;SDS011;61467;50.674;4.618;2024-03-23T04:27:31;20.83;;;9.20;;
72649;SDS011;61467;50.674;4.618;2024-03-23T04:29:57;19.38;;;8.82;;
72649;SDS011;61467;50.674;4.618;2024-03-23T04:32:26;19.15;;;9.50;;
72649;SDS011;61467;50.674;4.618;2024-03-23T04:34:52;21.02;;;9.05;;
72649;SDS011;61467;50.674;4.618;2024-03-23T04:37:19;18.58;;;8.43;;
72649;SDS011;61467;50.674;4.618;2024-03-23T04:39:46;17.80;;;8.77;;
72649;SDS011;61467;50.674;4.618;2024-03-23T04:42:15;20.92;;;8.45;;
72649;SDS011;61467;50.674;4.618;2024-03-23T04:44:42;16.98;;;8.35;;
72649;SDS011;61467;50.674;4.618;2024-03-23T04:47:10;18.92;;;7.78;;
72649;SDS011;61467;50.674;4.618;2024-03-23T04:49:37;14.63;;;7.63;;
72649;SDS011;61467;50.674;4.618;2024-03-23T04:52:04;16.27;;;7.53;;
72649;SDS011;61467;50.674;4.618;2024-03-23T04:54:31;15.18;;;7.13;;
72649;SDS011;61467;50.674;4.618;2024-03-23T04:56:58;18.73;;;7.82;;
72649;SDS011;61467;50.674;4.618;2024-03-23T04:59:27;17.33;;;7.00;;
72649;SDS011;61467;50.674;4.618;2024-03-23T05:01:53;17.05;;;6.68;;
72649;SDS011;61467;50.674;4.618;2024-03-23T05:04:20;17.80;;;6.60;;
72649;SDS011;61467;50.674;4.618;2024-03-23T05:06:46;17.88;;;6.80;;
72649;SDS011;61467;50.674;4.618;2024-03-23T05:09:13;16.88;;;6.75;;
72649;SDS011;61467;50.674;4.618;2024-03-23T05:11:38;19.10;;;6.63;;
72649;SDS011;61467;50.674;4.618;2024-03-23T05:14:06;15.70;;;6.47;;
72649;SDS011;61467;50.674;4.618;2024-03-23T05:16:33;16.85;;;5.30;;
72649;SDS011;61467;50.674;4.618;2024-03-23T05:19:00;11.40;;;4.43;;
72649;SDS011;61467;50.674;4.618;2024-03-23T05:21:26;14.27;;;5.05;;
72649;SDS011;61467;50.674;4.618;2024-03-23T05:23:53;10.57;;;4.88;;
72649;SDS011;61467;50.674;4.618;2024-03-23T05:26:19;16.50;;;5.13;;
72649;SDS011;61467;50.674;4.618;2024-03-23T05:28:46;11.38;;;4.53;;
72649;SDS011;61467;50.674;4.618;2024-03-23T05:31:12;11.25;;;3.70;;
72649;SDS011;61467;50.674;4.618;2024-03-23T05:33:50;11.02;;;3.58;;
72649;SDS011;61467;50.674;4.618;2024-03-23T05:36:17;8.73;;;2.57;;
72649;SDS011;61467;50.674;4.618;2024-03-23T05:38:44;8.75;;;3.00;;
72649;SDS011;61467;50.674;4.618;2024-03-23T05:41:11;10.18;;;3.00;;
72649;SDS011;61467;50.674;4.618;2024-03-23T05:43:39;9.65;;;3.15;;
72649;SDS011;61467;50.674;4.618;2024-03-23T05:46:04;10.30;;;3.45;;
72649;SDS011;61467;50.674;4.618;2024-03-23T05:48:32;10.20;;;3.17;;
72649;SDS011;61467;50.674;4.618;2024-03-23T05:51:00;13.23;;;2.97;;
72649;SDS011;61467;50.674;4.618;2024-03-23T05:53:28;9.30;;;2.90;;
72649;SDS011;61467;50.674;4.618;2024-03-23T05:56:00;11.07;;;3.20;;
72649;SDS011;61467;50.674;4.618;2024-03-23T05:58:28;8.83;;;3.00;;
72649;SDS011;61467;50.674;4.618;2024-03-23T06:00:56;9.13;;;3.03;;
72649;SDS011;61467;50.674;4.618;2024-03-23T06:03:24;12.15;;;3.60;;
72649;SDS011;61467;50.674;4.618;2024-03-23T06:05:50;12.30;;;3.30;;
72649;SDS011;61467;50.674;4.618;2024-03-23T06:08:19;13.27;;;3.30;;
72649;SDS011;61467;50.674;4.618;2024-03-23T06:10:45;9.67;;;3.80;;
72649;SDS011;61467;50.674;4.618;2024-03-23T06:13:12;12.77;;;4.05;;
72649;SDS011;61467;50.674;4.618;2024-03-23T06:15:39;10.48;;;3.70;;
72649;SDS011;61467;50.674;4.618;2024-03-23T06:18:06;10.07;;;3.63;;
72649;SDS011;61467;50.674;4.618;2024-03-23T06:20:33;11.75;;;3.65;;
72649;SDS011;61467;50.674;4.618;2024-03-23T06:23:00;11.07;;;3.30;;
72649;SDS011;61467;50.674;4.618;2024-03-23T06:25:28;10.80;;;3.47;;
72649;SDS011;61467;50.674;4.618;2024-03-23T06:27:55;12.07;;;3.33;;
72649;SDS011;61467;50.674;4.618;2024-03-23T06:30:20;13.68;;;3.13;;
72649;SDS011;61467;50.674;4.618;2024-03-23T06:32:47;11.60;;;2.88;;
72649;SDS011;61467;50.674;4.618;2024-03-23T06:35:13;11.10;;;2.93;;
72649;SDS011;61467;50.674;4.618;2024-03-23T06:37:41;10.15;;;2.67;;
72649;SDS011;61467;50.674;4.618;2024-03-23T06:40:07;9.52;;;2.40;;
72649;SDS011;61467;50.674;4.618;2024-03-23T06:42:37;11.90;;;2.70;;
72649;SDS011;61467;50.674;4.618;2024-03-23T06:45:03;8.97;;;2.87;;
72649;SDS011;61467;50.674;4.618;2024-03-23T06:47:30;13.18;;;2.95;;
72649;SDS011;61467;50.674;4.618;2024-03-23T06:49:56;14.63;;;2.75;;
72649;SDS011;61467;50.674;4.618;2024-03-23T06:52:23;12.90;;;2.85;;
72649;SDS011;61467;50.674;4.618;2024-03-23T06:54:49;8.67;;;3.03;;
72649;SDS011;61467;50.674;4.618;2024-03-23T06:57:16;10.30;;;2.97;;
72649;SDS011;61467;50.674;4.618;2024-03-23T06:59:43;9.50;;;2.47;;
72649;SDS011;61467;50.674;4.618;2024-03-23T07:02:10;9.13;;;2.47;;
72649;SDS011;61467;50.674;4.618;2024-03-23T07:04:36;10.43;;;2.47;;
72649;SDS011;61467;50.674;4.618;2024-03-23T07:07:04;8.77;;;2.17;;
72649;SDS011;61467;50.674;4.618;2024-03-23T07:09:30;9.07;;;2.17;;
72649;SDS011;61467;50.674;4.618;2024-03-23T07:11:57;9.95;;;2.72;;
72649;SDS011;61467;50.674;4.618;2024-03-23T07:14:23;8.27;;;1.63;;
72649;SDS011;61467;50.674;4.618;2024-03-23T07:16:52;9.57;;;2.45;;
72649;SDS011;61467;50.674;4.618;2024-03-23T07:19:18;8.50;;;2.00;;
72649;SDS011;61467;50.674;4.618;2024-03-23T07:21:45;10.07;;;2.05;;
72649;SDS011;61467;50.674;4.618;2024-03-23T07:24:13;10.05;;;2.40;;
72649;SDS011;61467;50.674;4.618;2024-03-23T07:26:40;11.77;;;2.60;;
72649;SDS011;61467;50.674;4.618;2024-03-23T07:29:06;14.68;;;2.65;;
72649;SDS011;61467;50.674;4.618;2024-03-23T07:31:33;14.30;;;2.33;;
72649;SDS011;61467;50.674;4.618;2024-03-23T07:34:00;13.25;;;2.95;;
72649;SDS011;61467;50.674;4.618;2024-03-23T07:36:27;13.45;;;2.45;;
72649;SDS011;61467;50.674;4.618;2024-03-23T07:38:53;14.47;;;2.57;;
72649;SDS011;61467;50.674;4.618;2024-03-23T07:41:20;11.55;;;3.03;;
72649;SDS011;61467;50.674;4.618;2024-03-23T07:43:47;11.57;;;2.90;;
72649;SDS011;61467;50.674;4.618;2024-03-23T07:46:14;11.02;;;2.88;;
72649;SDS011;61467;50.674;4.618;2024-03-23T07:48:41;18.08;;;3.10;;
72649;SDS011;61467;50.674;4.618;2024-03-23T07:51:10;13.50;;;2.80;;
72649;SDS011;61467;50.674;4.618;2024-03-23T07:53:38;12.95;;;3.03;;
72649;SDS011;61467;50.674;4.618;2024-03-23T07:56:05;16.00;;;3.50;;
72649;SDS011;61467;50.674;4.618;2024-03-23T07:58:32;11.20;;;2.17;;
72649;SDS011;61467;50.674;4.618;2024-03-23T08:01:03;10.60;;;2.33;;
72649;SDS011;61467;50.674;4.618;2024-03-23T08:03:30;11.33;;;2.60;;
72649;SDS011;61467;50.674;4.618;2024-03-23T08:05:57;10.02;;;2.10;;
72649;SDS011;61467;50.674;4.618;2024-03-23T08:08:25;10.65;;;2.30;;
72649;SDS011;61467;50.674;4.618;2024-03-23T08:10:52;12.80;;;2.70;;
72649;SDS011;61467;50.674;4.618;2024-03-23T08:13:18;10.80;;;3.05;;
72649;SDS011;61467;50.674;4.618;2024-03-23T08:15:45;12.83;;;2.17;;
72649;SDS011;61467;50.674;4.618;2024-03-23T08:18:12;9.68;;;2.25;;
72649;SDS011;61467;50.674;4.618;2024-03-23T08:20:40;15.27;;;2.63;;
72649;SDS011;61467;50.674;4.618;2024-03-23T08:23:06;12.93;;;3.22;;
72649;SDS011;61467;50.674;4.618;2024-03-23T08:25:35;11.17;;;2.50;;
72649;SDS011;61467;50.674;4.618;2024-03-23T08:28:01;11.80;;;2.97;;
72649;SDS011;61467;50.674;4.618;2024-03-23T08:30:28;9.90;;;2.58;;
72649;SDS011;61467;50.674;4.618;2024-03-23T08:32:54;9.05;;;2.58;;
72649;SDS011;61467;50.674;4.618;2024-03-23T08:35:21;11.82;;;3.17;;
72649;SDS011;61467;50.674;4.618;2024-03-23T08:37:47;11.90;;;3.23;;
72649;SDS011;61467;50.674;4.618;2024-03-23T08:40:14;10.80;;;3.30;;
72649;SDS011;61467;50.674;4.618;2024-03-23T08:42:42;11.02;;;3.88;;
72649;SDS011;61467;50.674;4.618;2024-03-23T08:45:09;12.15;;;3.30;;
72649;SDS011;61467;50.674;4.618;2024-03-23T08:47:35;11.30;;;3.90;;
72649;SDS011;61467;50.674;4.618;2024-03-23T08:50:02;10.73;;;3.65;;
72649;SDS011;61467;50.674;4.618;2024-03-23T08:52:29;12.15;;;3.90;;
72649;SDS011;61467;50.674;4.618;2024-03-23T08:54:56;14.50;;;3.75;;
72649;SDS011;61467;50.674;4.618;2024-03-23T08:57:22;14.38;;;3.72;;
72649;SDS011;61467;50.674;4.618;2024-03-23T08:59:50;14.67;;;3.90;;
72649;SDS011;61467;50.674;4.618;2024-03-23T09:02:16;11.38;;;3.88;;
72649;SDS011;61467;50.674;4.618;2024-03-23T09:04:43;9.43;;;3.80;;
72649;SDS011;61467;50.674;4.618;2024-03-23T09:07:10;9.60;;;2.58;;
72649;SDS011;61467;50.674;4.618;2024-03-23T09:09:37;16.48;;;4.68;;
72649;SDS011;61467;50.674;4.618;2024-03-23T09:12:04;9.63;;;3.60;;
72649;SDS011;61467;50.674;4.618;2024-03-23T09:14:31;12.50;;;3.70;;
72649;SDS011;61467;50.674;4.618;2024-03-23T09:16:59;13.15;;;3.30;;
72649;SDS011;61467;50.674;4.618;2024-03-23T09:19:26;9.70;;;3.45;;
72649;SDS011;61467;50.674;4.618;2024-03-23T09:21:53;11.55;;;3.00;;
72649;SDS011;61467;50.674;4.618;2024-03-23T09:24:20;10.10;;;2.63;;
72649;SDS011;61467;50.674;4.618;2024-03-23T09:26:46;8.25;;;3.33;;
72649;SDS011;61467;50.674;4.618;2024-03-23T09:29:13;13.70;;;3.60;;
72649;SDS011;61467;50.674;4.618;2024-03-23T09:31:39;11.38;;;3.40;;
72649;SDS011;61467;50.674;4.618;2024-03-23T09:34:07;11.38;;;2.78;;
72649;SDS011;61467;50.674;4.618;2024-03-23T09:36:33;9.73;;;2.80;;
72649;SDS011;61467;50.674;4.618;2024-03-23T09:39:00;10.93;;;3.00;;
72649;SDS011;61467;50.674;4.618;2024-03-23T09:41:26;10.75;;;3.42;;
72649;SDS011;61467;50.674;4.618;2024-03-23T09:43:53;7.43;;;2.67;;
72649;SDS011;61467;50.674;4.618;2024-03-23T09:46:19;8.27;;;2.50;;
72649;SDS011;61467;50.674;4.618;2024-03-23T09:48:46;8.25;;;2.65;;
72649;SDS011;61467;50.674;4.618;2024-03-23T09:51:14;11.57;;;3.10;;
72649;SDS011;61467;50.674;4.618;2024-03-23T09:53:41;9.73;;;3.00;;
72649;SDS011;61467;50.674;4.618;2024-03-23T09:56:07;8.02;;;2.70;;
72649;SDS011;61467;50.674;4.618;2024-03-23T09:58:35;7.77;;;2.27;;
72649;SDS011;61467;50.674;4.618;2024-03-23T10:01:01;8.45;;;2.65;;
72649;SDS011;61467;50.674;4.618;2024-03-23T10:03:29;7.22;;;2.33;;
72649;SDS011;61467;50.674;4.618;2024-03-23T10:06:01;11.15;;;2.30;;
72649;SDS011;61467;50.674;4.618;2024-03-23T10:08:30;8.73;;;1.83;;
72649;SDS011;61467;50.674;4.618;2024-03-23T10:10:58;9.45;;;1.92;;
72649;SDS011;61467;50.674;4.618;2024-03-23T10:13:41;7.85;;;1.95;;
72649;SDS011;61467;50.674;4.618;2024-03-23T10:16:07;9.60;;;2.00;;
72649;SDS011;61467;50.674;4.618;2024-03-23T10:18:36;9.48;;;2.40;;
72649;SDS011;61467;50.674;4.618;2024-03-23T10:21:06;6.60;;;1.80;;
72649;SDS011;61467;50.674;4.618;2024-03-23T10:23:37;9.50;;;1.80;;
72649;SDS011;61467;50.674;4.618;2024-03-23T10:26:14;7.68;;;2.00;;
72649;SDS011;61467;50.674;4.618;2024-03-23T10:28:50;7.03;;;1.60;;
72649;SDS011;61467;50.674;4.618;2024-03-23T10:31:20;7.05;;;1.83;;
72649;SDS011;61467;50.674;4.618;2024-03-23T10:33:47;8.63;;;1.67;;
72649;SDS011;61467;50.674;4.618;2024-03-23T10:36:14;7.13;;;2.00;;
72649;SDS011;61467;50.674;4.618;2024-03-23T10:38:44;9.88;;;2.78;;
72649;SDS011;61467;50.674;4.618;2024-03-23T10:41:10;8.40;;;1.77;;
72649;SDS011;61467;50.674;4.618;2024-03-23T10:43:37;6.60;;;1.60;;
72649;SDS011;61467;50.674;4.618;2024-03-23T10:46:04;14.63;;;2.03;;
72649;SDS011;61467;50.674;4.618;2024-03-23T10:48:32;7.75;;;1.73;;
72649;SDS011;61467;50.674;4.618;2024-03-23T10:50:58;6.70;;;1.80;;
72649;SDS011;61467;50.674;4.618;2024-03-23T10:53:26;6.10;;;1.30;;
72649;SDS011;61467;50.674;4.618;2024-03-23T10:55:54;7.97;;;2.20;;
72649;SDS011;61467;50.674;4.618;2024-03-23T10:58:23;9.30;;;1.40;;
72649;SDS011;61467;50.674;4.618;2024-03-23T11:00:53;6.47;;;1.50;;
72649;SDS011;61467;50.674;4.618;2024-03-23T11:03:30;5.72;;;1.48;;
72649;SDS011;61467;50.674;4.618;2024-03-23T11:05:56;9.30;;;1.27;;
72649;SDS011;61467;50.674;4.618;2024-03-23T11:08:30;8.95;;;1.58;;
72649;SDS011;61467;50.674;4.618;2024-03-23T11:13:50;12.43;;;1.70;;
72649;SDS011;61467;50.674;4.618;2024-03-23T11:16:21;7.87;;;1.63;;
72649;SDS011;61467;50.674;4.618;2024-03-23T11:18:49;6.28;;;1.40;;
72649;SDS011;61467;50.674;4.618;2024-03-23T11:24:19;7.30;;;1.55;;
72649;SDS011;61467;50.674;4.618;2024-03-23T11:26:47;6.35;;;1.65;;
72649;SDS011;61467;50.674;4.618;2024-03-23T11:29:15;6.50;;;1.40;;
72649;SDS011;61467;50.674;4.618;2024-03-23T11:31:46;6.43;;;1.40;;
72649;SDS011;61467;50.674;4.618;2024-03-23T11:34:13;6.60;;;1.30;;
72649;SDS011;61467;50.674;4.618;2024-03-23T11:36:41;7.32;;;1.30;;
72649;SDS011;61467;50.674;4.618;2024-03-23T11:39:13;7.22;;;1.52;;
72649;SDS011;61467;50.674;4.618;2024-03-23T11:41:47;7.60;;;1.23;;
72649;SDS011;61467;50.674;4.618;2024-03-23T11:44:16;5.13;;;1.30;;
72649;SDS011;61467;50.674;4.618;2024-03-23T11:46:43;4.47;;;1.15;;
72649;SDS011;61467;50.674;4.618;2024-03-23T11:49:19;5.90;;;1.40;;
72649;SDS011;61467;50.674;4.618;2024-03-23T11:51:48;5.53;;;1.10;;
72649;SDS011;61467;50.674;4.618;2024-03-23T11:54:14;3.13;;;0.97;;
72649;SDS011;61467;50.674;4.618;2024-03-23T11:56:53;6.25;;;1.20;;
72649;SDS011;61467;50.674;4.618;2024-03-23T11:59:31;5.70;;;1.02;;
72649;SDS011;61467;50.674;4.618;2024-03-23T12:01:58;3.75;;;0.95;;
72649;SDS011;61467;50.674;4.618;2024-03-23T12:04:25;7.38;;;1.20;;
72649;SDS011;61467;50.674;4.618;2024-03-23T12:09:34;5.85;;;0.93;;
72649;SDS011;61467;50.674;4.618;2024-03-23T12:12:05;4.38;;;1.10;;
72649;SDS011;61467;50.674;4.618;2024-03-23T12:14:34;4.55;;;1.30;;
72649;SDS011;61467;50.674;4.618;2024-03-23T12:17:07;6.05;;;1.58;;
72649;SDS011;61467;50.674;4.618;2024-03-23T12:19:36;5.10;;;1.20;;
72649;SDS011;61467;50.674;4.618;2024-03-23T12:22:04;5.07;;;1.33;;
72649;SDS011;61467;50.674;4.618;2024-03-23T12:24:30;5.68;;;1.20;;
72649;SDS011;61467;50.674;4.618;2024-03-23T12:26:59;3.53;;;0.75;;
72649;SDS011;61467;50.674;4.618;2024-03-23T12:29:27;2.97;;;0.60;;
72649;SDS011;61467;50.674;4.618;2024-03-23T12:31:58;5.03;;;0.83;;
72649;SDS011;61467;50.674;4.618;2024-03-23T12:34:25;4.22;;;1.10;;
72649;SDS011;61467;50.674;4.618;2024-03-23T12:36:52;3.83;;;0.80;;
72649;SDS011;61467;50.674;4.618;2024-03-23T12:39:18;3.42;;;0.70;;
72649;SDS011;61467;50.674;4.618;2024-03-23T12:41:45;4.57;;;0.68;;
72649;SDS011;61467;50.674;4.618;2024-03-23T12:44:11;4.77;;;0.80;;
72649;SDS011;61467;50.674;4.618;2024-03-23T12:46:39;3.58;;;0.90;;
72649;SDS011;61467;50.674;4.618;2024-03-23T12:49:06;3.80;;;0.75;;
72649;SDS011;61467;50.674;4.618;2024-03-23T12:51:33;5.25;;;0.90;;
72649;SDS011;61467;50.674;4.618;2024-03-23T12:53:59;5.70;;;0.90;;
72649;SDS011;61467;50.674;4.618;2024-03-23T12:56:26;3.70;;;0.80;;
72649;SDS011;61467;50.674;4.618;2024-03-23T12:58:53;5.47;;;1.08;;
72649;SDS011;61467;50.674;4.618;2024-03-23T13:01:22;4.88;;;1.13;;
72649;SDS011;61467;50.674;4.618;2024-03-23T13:03:48;3.55;;;0.85;;
72649;SDS011;61467;50.674;4.618;2024-03-23T13:06:17;6.13;;;0.90;;
72649;SDS011;61467;50.674;4.618;2024-03-23T13:08:44;4.95;;;0.90;;
72649;SDS011;61467;50.674;4.618;2024-03-23T13:11:11;9.48;;;1.50;;
72649;SDS011;61467;50.674;4.618;2024-03-23T13:13:38;7.10;;;1.33;;
72649;SDS011;61467;50.674;4.618;2024-03-23T13:16:05;5.13;;;1.30;;
72649;SDS011;61467;50.674;4.618;2024-03-23T13:18:31;5.20;;;1.00;;
72649;SDS011;61467;50.674;4.618;2024-03-23T13:20:58;6.35;;;1.33;;
72649;SDS011;61467;50.674;4.618;2024-03-23T13:23:26;6.93;;;1.33;;
72649;SDS011;61467;50.674;4.618;2024-03-23T13:25:54;5.93;;;1.13;;
72649;SDS011;61467;50.674;4.618;2024-03-23T13:28:20;4.72;;;1.23;;
72649;SDS011;61467;50.674;4.618;2024-03-23T13:30:51;3.90;;;0.93;;
72649;SDS011;61467;50.674;4.618;2024-03-23T13:33:17;5.78;;;0.90;;
72649;SDS011;61467;50.674;4.618;2024-03-23T13:35:50;5.30;;;1.52;;
72649;SDS011;61467;50.674;4.618;2024-03-23T13:38:16;5.20;;;1.10;;
72649;SDS011;61467;50.674;4.618;2024-03-23T13:40:54;5.50;;;0.90;;
72649;SDS011;61467;50.674;4.618;2024-03-23T13:43:21;7.77;;;1.20;;
72649;SDS011;61467;50.674;4.618;2024-03-23T13:45:49;6.32;;;1.17;;
72649;SDS011;61467;50.674;4.618;2024-03-23T13:48:18;7.15;;;0.90;;
72649;SDS011;61467;50.674;4.618;2024-03-23T13:50:46;7.68;;;1.05;;
72649;SDS011;61467;50.674;4.618;2024-03-23T13:53:13;5.95;;;1.30;;
72649;SDS011;61467;50.674;4.618;2024-03-23T13:55:45;4.97;;;1.13;;
72649;SDS011;61467;50.674;4.618;2024-03-23T13:58:13;8.80;;;0.85;;
72649;SDS011;61467;50.674;4.618;2024-03-23T14:00:40;4.93;;;1.00;;
72649;SDS011;61467;50.674;4.618;2024-03-23T14:03:08;4.53;;;1.00;;
72649;SDS011;61467;50.674;4.618;2024-03-23T14:05:35;4.05;;;1.00;;
72649;SDS011;61467;50.674;4.618;2024-03-23T14:08:01;4.90;;;1.03;;
72649;SDS011;61467;50.674;4.618;2024-03-23T14:10:28;6.18;;;1.10;;
72649;SDS011;61467;50.674;4.618;2024-03-23T14:12:54;6.13;;;1.25;;
72649;SDS011;61467;50.674;4.618;2024-03-23T14:15:22;7.25;;;1.85;;
72649;SDS011;61467;50.674;4.618;2024-03-23T14:17:48;3.38;;;1.17;;
72649;SDS011;61467;50.674;4.618;2024-03-23T14:20:16;6.20;;;1.23;;
72649;SDS011;61467;50.674;4.618;2024-03-23T14:22:42;5.03;;;1.23;;
72649;SDS011;61467;50.674;4.618;2024-03-23T14:25:09;6.68;;;1.20;;
72649;SDS011;61467;50.674;4.618;2024-03-23T14:27:36;6.85;;;0.70;;
72649;SDS011;61467;50.674;4.618;2024-03-23T14:30:03;5.83;;;0.90;;
72649;SDS011;61467;50.674;4.618;2024-03-23T14:32:31;6.18;;;1.10;;
72649;SDS011;61467;50.674;4.618;2024-03-23T14:34:59;4.93;;;1.13;;
72649;SDS011;61467;50.674;4.618;2024-03-23T14:37:25;6.10;;;1.23;;
72649;SDS011;61467;50.674;4.618;2024-03-23T14:39:52;6.15;;;1.17;;
72649;SDS011;61467;50.674;4.618;2024-03-23T14:42:18;5.30;;;0.97;;
72649;SDS011;61467;50.674;4.618;2024-03-23T14:44:45;5.75;;;0.90;;
72649;SDS011;61467;50.674;4.618;2024-03-23T14:47:11;6.10;;;1.10;;
72649;SDS011;61467;50.674;4.618;2024-03-23T14:49:39;4.68;;;1.08;;
72649;SDS011;61467;50.674;4.618;2024-03-23T14:52:05;4.93;;;0.80;;
72649;SDS011;61467;50.674;4.618;2024-03-23T14:54:32;5.22;;;1.00;;
72649;SDS011;61467;50.674;4.618;2024-03-23T14:56:58;7.32;;;1.50;;
72649;SDS011;61467;50.674;4.618;2024-03-23T14:59:25;4.22;;;0.70;;
72649;SDS011;61467;50.674;4.618;2024-03-23T15:01:51;6.17;;;0.90;;
72649;SDS011;61467;50.674;4.618;2024-03-23T15:04:18;6.60;;;1.13;;
72649;SDS011;61467;50.674;4.618;2024-03-23T15:06:46;5.95;;;1.38;;
72649;SDS011;61467;50.674;4.618;2024-03-23T15:09:15;5.75;;;1.75;;
72649;SDS011;61467;50.674;4.618;2024-03-23T15:11:41;5.13;;;1.17;;
72649;SDS011;61467;50.674;4.618;2024-03-23T15:14:08;8.50;;;1.27;;
72649;SDS011;61467;50.674;4.618;2024-03-23T15:16:35;7.03;;;1.25;;
72649;SDS011;61467;50.674;4.618;2024-03-23T15:19:02;7.13;;;1.63;;
72649;SDS011;61467;50.674;4.618;2024-03-23T15:21:31;5.30;;;1.42;;
72649;SDS011;61467;50.674;4.618;2024-03-23T15:23:59;4.00;;;1.02;;
72649;SDS011;61467;50.674;4.618;2024-03-23T15:26:25;4.97;;;1.30;;
72649;SDS011;61467;50.674;4.618;2024-03-23T15:28:52;6.70;;;1.20;;
72649;SDS011;61467;50.674;4.618;2024-03-23T15:31:36;6.22;;;1.20;;
72649;SDS011;61467;50.674;4.618;2024-03-23T15:34:03;4.72;;;1.08;;
72649;SDS011;61467;50.674;4.618;2024-03-23T15:36:30;4.10;;;1.00;;
72649;SDS011;61467;50.674;4.618;2024-03-23T15:38:57;9.57;;;1.00;;
72649;SDS011;61467;50.674;4.618;2024-03-23T15:41:24;6.20;;;1.10;;
72649;SDS011;61467;50.674;4.618;2024-03-23T15:43:51;6.00;;;1.20;;
72649;SDS011;61467;50.674;4.618;2024-03-23T15:46:18;4.07;;;1.17;;